createdAt,value
2022-12-01T00:02:09.677Z,7.50
2022-12-01T00:04:36.521Z,7.60
2022-12-01T00:07:03.297Z,7.50
2022-12-01T00:09:49.108Z,7.50
2022-12-01T00:12:16.526Z,7.50
2022-12-01T00:14:43.367Z,7.50
2022-12-01T00:17:10.210Z,7.50
2022-12-01T00:19:37.130Z,7.50
2022-12-01T00:22:04.484Z,7.50
2022-12-01T00:24:31.352Z,7.60
2022-12-01T00:26:58.296Z,7.60
2022-12-01T00:29:25.232Z,7.10
2022-12-01T00:31:52.130Z,7.50
2022-12-01T00:34:22.584Z,7.60
2022-12-01T00:36:49.345Z,8.60
2022-12-01T00:39:17.086Z,7.60
2022-12-01T00:41:43.843Z,7.50
2022-12-01T00:44:10.920Z,7.90
2022-12-01T00:46:37.736Z,7.70
2022-12-01T00:49:04.500Z,7.70
2022-12-01T00:51:31.332Z,7.90
2022-12-01T00:53:58.423Z,8.00
2022-12-01T00:56:25.213Z,7.70
2022-12-01T00:58:52.260Z,7.70
2022-12-01T01:01:19.140Z,7.70
2022-12-01T01:03:46.087Z,6.70
2022-12-01T01:06:12.917Z,7.70
2022-12-01T01:08:40.154Z,8.20
2022-12-01T01:11:07.406Z,7.70
2022-12-01T01:13:34.488Z,7.70
2022-12-01T01:16:05.336Z,7.60
2022-12-01T01:18:32.238Z,7.60
2022-12-01T01:20:59.457Z,7.40
2022-12-01T01:23:26.276Z,7.60
2022-12-01T01:25:53.023Z,7.60
2022-12-01T01:28:20.107Z,7.70
2022-12-01T01:30:47.037Z,7.80
2022-12-01T01:33:13.909Z,7.60
2022-12-01T01:35:40.778Z,7.60
2022-12-01T01:38:07.773Z,7.60
2022-12-01T01:40:34.639Z,7.50
2022-12-01T01:43:01.458Z,7.50
2022-12-01T01:45:31.367Z,7.50
2022-12-01T01:47:58.548Z,7.50
2022-12-01T01:50:26.032Z,7.40
2022-12-01T01:52:55.321Z,7.40
2022-12-01T01:55:22.082Z,7.40
2022-12-01T01:57:48.897Z,8.20
2022-12-01T02:00:17.077Z,7.30
2022-12-01T02:02:44.556Z,7.20
2022-12-01T02:05:13.826Z,7.10
2022-12-01T02:07:40.960Z,7.10
2022-12-01T02:10:08.448Z,6.90
2022-12-01T02:12:48.307Z,6.90
2022-12-01T02:15:18.110Z,6.80
2022-12-01T02:17:46.148Z,6.80
2022-12-01T02:20:22.019Z,7.10
2022-12-01T02:22:54.260Z,6.60
2022-12-01T02:25:21.801Z,6.60
2022-12-01T02:27:48.678Z,6.50
2022-12-01T02:30:18.478Z,6.40
2022-12-01T02:33:04.055Z,6.40
2022-12-01T02:35:30.896Z,6.30
2022-12-01T02:38:07.706Z,6.30
2022-12-01T02:40:39.548Z,6.20
2022-12-01T02:43:21.846Z,6.20
2022-12-01T02:45:50.411Z,6.10
2022-12-01T02:48:35.830Z,6.10
2022-12-01T02:51:06.949Z,6.00
2022-12-01T02:53:33.682Z,6.00
2022-12-01T02:56:00.683Z,6.00
2022-12-01T02:58:27.467Z,6.00
2022-12-01T03:01:12.720Z,6.00
2022-12-01T03:03:58.649Z,6.00
2022-12-01T03:06:30.141Z,6.00
2022-12-01T03:09:15.971Z,6.00
2022-12-01T03:12:03.245Z,6.00
2022-12-01T03:14:33.493Z,6.10
2022-12-01T03:17:01.657Z,6.10
2022-12-01T03:19:33.628Z,6.10
2022-12-01T03:22:20.164Z,6.10
2022-12-01T03:24:47.237Z,6.10
2022-12-01T03:27:14.215Z,6.10
2022-12-01T03:29:43.311Z,6.10
2022-12-01T03:32:12.967Z,6.20
2022-12-01T03:35:00.088Z,6.20
2022-12-01T03:37:28.369Z,6.20
2022-12-01T03:40:00.279Z,6.20
2022-12-01T03:42:29.524Z,6.30
2022-12-01T03:44:57.024Z,6.30
2022-12-01T03:47:29.528Z,6.30
2022-12-01T03:49:56.320Z,6.40
2022-12-01T03:52:30.709Z,6.40
2022-12-01T03:55:02.158Z,6.40
2022-12-01T03:57:49.455Z,6.40
2022-12-01T04:00:17.196Z,6.40
2022-12-01T04:02:45.162Z,6.40
2022-12-01T04:05:11.970Z,6.40
2022-12-01T04:07:38.855Z,6.40
2022-12-01T04:10:05.938Z,6.50
2022-12-01T04:12:35.674Z,6.40
2022-12-01T04:15:03.911Z,6.50
2022-12-01T04:17:30.797Z,6.50
2022-12-01T04:19:57.636Z,6.50
2022-12-01T04:22:24.391Z,6.50
2022-12-01T04:24:51.264Z,6.50
2022-12-01T04:27:18.015Z,6.50
2022-12-01T04:29:44.925Z,6.60
2022-12-01T04:32:11.804Z,6.50
2022-12-01T04:34:38.735Z,7.30
2022-12-01T04:37:06.092Z,6.50
2022-12-01T04:39:33.140Z,6.50
2022-12-01T04:41:59.993Z,6.70
2022-12-01T04:44:31.491Z,6.50
2022-12-01T04:47:01.443Z,6.70
2022-12-01T04:49:28.603Z,6.50
2022-12-01T04:51:55.391Z,6.60
2022-12-01T04:54:22.479Z,6.30
2022-12-01T04:56:49.274Z,6.30
2022-12-01T04:59:16.263Z,6.30
2022-12-01T05:01:43.260Z,6.20
2022-12-01T05:04:13.736Z,5.70
2022-12-01T05:06:40.533Z,6.10
2022-12-01T05:09:07.786Z,6.00
2022-12-01T05:11:34.607Z,5.90
2022-12-01T05:14:01.351Z,6.00
2022-12-01T05:16:29.009Z,7.00
2022-12-01T05:19:14.960Z,6.80
2022-12-01T05:21:42.033Z,6.70
2022-12-01T05:24:08.933Z,6.10
2022-12-01T05:26:35.688Z,6.10
2022-12-01T05:29:02.543Z,6.10
2022-12-01T05:31:29.364Z,6.40
2022-12-01T05:33:56.238Z,6.10
2022-12-01T05:36:22.921Z,6.10
2022-12-01T05:38:49.638Z,6.20
2022-12-01T05:41:16.407Z,6.40
2022-12-01T05:43:43.178Z,6.50
2022-12-01T05:46:09.941Z,6.10
2022-12-01T05:48:36.700Z,6.10
2022-12-01T05:51:10.332Z,6.20
2022-12-01T05:53:37.111Z,6.20
2022-12-01T05:56:03.993Z,6.10
2022-12-01T05:58:30.786Z,6.20
2022-12-01T06:00:57.723Z,6.20
2022-12-01T06:03:24.503Z,7.30
2022-12-01T06:05:51.300Z,6.10
2022-12-01T06:08:18.254Z,7.10
2022-12-01T06:10:45.219Z,6.20
2022-12-01T06:13:12.044Z,6.10
2022-12-01T06:15:38.792Z,6.20
2022-12-01T06:18:05.630Z,6.20
2022-12-01T06:20:32.914Z,6.20
2022-12-01T06:22:59.769Z,6.20
2022-12-01T06:25:26.543Z,6.20
2022-12-01T06:27:57.437Z,6.20
2022-12-01T06:30:24.378Z,6.20
2022-12-01T06:32:51.296Z,7.20
2022-12-01T06:35:18.167Z,6.10
2022-12-01T06:37:44.985Z,6.30
2022-12-01T06:40:11.999Z,6.30
2022-12-01T06:42:38.865Z,6.30
2022-12-01T06:45:05.820Z,6.70
2022-12-01T06:47:32.615Z,6.30
2022-12-01T06:49:59.520Z,6.30
2022-12-01T06:52:26.373Z,6.20
2022-12-01T06:54:53.224Z,6.80
2022-12-01T06:57:20.318Z,6.70
2022-12-01T06:59:47.805Z,6.10
2022-12-01T07:02:15.100Z,6.30
2022-12-01T07:04:41.951Z,6.10
2022-12-01T07:07:08.707Z,6.00
2022-12-01T07:09:35.552Z,6.00
2022-12-01T07:12:02.529Z,5.90
2022-12-01T07:14:30.933Z,5.90
2022-12-01T07:16:58.197Z,5.80
2022-12-01T07:19:25.506Z,5.80
2022-12-01T07:21:55.146Z,5.80
2022-12-01T07:24:21.868Z,5.80
2022-12-01T07:26:48.636Z,5.70
2022-12-01T07:29:17.800Z,5.70
2022-12-01T07:31:44.631Z,5.60
2022-12-01T07:34:12.289Z,5.60
2022-12-01T07:36:39.069Z,5.60
2022-12-01T07:39:06.664Z,5.90
2022-12-01T07:41:36.209Z,5.60
2022-12-01T07:44:05.641Z,5.70
2022-12-01T07:46:32.516Z,5.70
2022-12-01T07:48:59.672Z,6.00
2022-12-01T07:51:26.535Z,5.80
2022-12-01T07:53:53.548Z,5.80
2022-12-01T07:56:20.559Z,5.80
2022-12-01T07:58:47.299Z,5.90
2022-12-01T08:01:18.117Z,5.90
2022-12-01T08:03:44.959Z,6.00
2022-12-01T08:06:14.138Z,6.00
2022-12-01T08:08:41.337Z,6.80
2022-12-01T08:11:10.197Z,6.00
2022-12-01T08:13:37.070Z,6.00
2022-12-01T08:16:05.184Z,6.10
2022-12-01T08:18:33.915Z,5.70
2022-12-01T08:21:00.728Z,6.10
2022-12-01T08:23:27.575Z,6.60
2022-12-01T08:25:54.308Z,6.40
2022-12-01T08:28:21.300Z,6.50
2022-12-01T08:30:48.298Z,6.20
2022-12-01T08:33:15.099Z,6.30
2022-12-01T08:35:41.920Z,6.10
2022-12-01T08:38:09.189Z,7.10
2022-12-01T08:40:36.105Z,6.40
2022-12-01T08:43:02.947Z,6.40
2022-12-01T08:45:29.978Z,6.40
2022-12-01T08:48:02.704Z,6.50
2022-12-01T08:50:29.778Z,6.10
2022-12-01T08:52:56.670Z,6.50
2022-12-01T08:55:23.434Z,7.20
2022-12-01T08:57:50.212Z,6.60
2022-12-01T09:00:17.184Z,6.60
2022-12-01T09:02:44.060Z,6.70
2022-12-01T09:05:10.988Z,6.70
2022-12-01T09:07:37.953Z,7.10
2022-12-01T09:10:05.250Z,6.70
2022-12-01T09:12:32.072Z,6.80
2022-12-01T09:14:58.992Z,6.80
2022-12-01T09:17:25.762Z,7.40
2022-12-01T09:19:52.764Z,6.90
2022-12-01T09:22:19.690Z,7.00
2022-12-01T09:24:46.825Z,7.00
2022-12-01T09:27:13.870Z,7.00
2022-12-01T09:29:40.752Z,7.10
2022-12-01T09:32:07.598Z,7.00
2022-12-01T09:34:34.408Z,7.00
2022-12-01T09:37:01.453Z,7.00
2022-12-01T09:39:28.291Z,6.90
2022-12-01T09:41:58.162Z,8.30
2022-12-01T09:44:31.264Z,6.90
2022-12-01T09:47:06.009Z,7.00
2022-12-01T09:49:44.564Z,7.00
2022-12-01T09:52:11.930Z,8.60
2022-12-01T09:54:38.654Z,7.10
2022-12-01T09:57:05.516Z,7.20
2022-12-01T09:59:33.284Z,7.30
2022-12-01T10:02:03.592Z,7.40
2022-12-01T10:04:38.433Z,7.50
2022-12-01T10:07:06.913Z,7.70
2022-12-01T10:09:39.092Z,7.80
2022-12-01T10:12:13.913Z,8.20
2022-12-01T10:14:41.001Z,8.00
2022-12-01T10:17:07.995Z,8.30
2022-12-01T10:19:55.235Z,8.10
2022-12-01T10:22:21.971Z,8.20
2022-12-01T10:24:57.518Z,8.30
2022-12-01T10:27:27.849Z,8.30
2022-12-01T10:30:03.597Z,8.40
2022-12-01T10:32:35.662Z,8.50
2022-12-01T10:35:03.080Z,8.60
2022-12-01T10:37:30.115Z,8.20
2022-12-01T10:39:57.078Z,8.70
2022-12-01T10:42:42.763Z,8.90
2022-12-01T10:45:16.986Z,9.00
2022-12-01T10:48:02.699Z,9.10
2022-12-01T10:50:29.704Z,9.20
2022-12-01T10:52:59.200Z,9.20
2022-12-01T10:55:29.552Z,9.30
2022-12-01T10:57:57.772Z,9.40
2022-12-01T11:00:59.067Z,9.40
2022-12-01T11:03:27.672Z,9.40
2022-12-01T11:05:58.429Z,9.60
2022-12-01T11:08:34.303Z,9.50
2022-12-01T11:11:01.230Z,9.40
2022-12-01T11:13:31.032Z,9.40
2022-12-01T11:15:58.603Z,9.30
2022-12-01T11:18:29.430Z,9.30
2022-12-01T11:21:05.296Z,9.20
2022-12-01T11:23:32.140Z,9.20
2022-12-01T11:26:08.204Z,9.20
2022-12-01T11:28:35.146Z,9.20
2022-12-01T11:31:03.283Z,9.90
2022-12-01T11:33:30.113Z,9.20
2022-12-01T11:35:56.867Z,9.20
2022-12-01T11:38:30.315Z,9.10
2022-12-01T11:40:57.824Z,9.10
2022-12-01T11:43:32.073Z,9.10
2022-12-01T11:46:00.133Z,9.10
2022-12-01T11:48:27.833Z,9.20
2022-12-01T11:51:00.794Z,9.20
2022-12-01T11:53:31.422Z,9.20
2022-12-01T11:56:14.239Z,9.20
2022-12-01T11:58:41.554Z,9.20
2022-12-01T12:01:31.790Z,9.20
2022-12-01T12:04:05.392Z,9.20
2022-12-01T12:06:40.507Z,9.30
2022-12-01T12:09:10.774Z,9.30
2022-12-01T12:12:06.976Z,9.30
2022-12-01T12:14:36.727Z,9.70
2022-12-01T12:17:06.473Z,9.30
2022-12-01T12:19:59.953Z,9.30
2022-12-01T12:22:34.009Z,9.30
2022-12-01T12:25:16.349Z,9.40
2022-12-01T12:27:49.285Z,9.40
2022-12-01T12:30:19.289Z,9.40
2022-12-01T12:32:46.071Z,9.40
2022-12-01T12:35:22.225Z,9.50
2022-12-01T12:38:09.264Z,9.50
2022-12-01T12:40:43.566Z,9.50
2022-12-01T12:43:28.205Z,9.50
2022-12-01T12:46:00.925Z,9.50
2022-12-01T12:49:11.568Z,9.40
2022-12-01T12:51:40.904Z,9.50
2022-12-01T12:54:13.785Z,9.50
2022-12-01T12:56:45.137Z,9.60
2022-12-01T12:59:13.987Z,9.60
2022-12-01T13:01:53.938Z,9.50
2022-12-01T13:04:26.087Z,9.80
2022-12-01T13:06:55.901Z,9.90
2022-12-01T13:09:23.868Z,10.00
2022-12-01T13:11:57.414Z,10.10
2022-12-01T13:14:24.251Z,10.70
2022-12-01T13:16:52.041Z,10.20
2022-12-01T13:19:23.918Z,10.30
2022-12-01T13:21:51.047Z,10.40
2022-12-01T13:24:22.734Z,10.40
2022-12-01T13:26:51.712Z,10.50
2022-12-01T13:29:18.908Z,10.50
2022-12-01T13:31:47.068Z,10.60
2022-12-01T13:34:21.795Z,10.60
2022-12-01T13:36:49.268Z,10.80
2022-12-01T13:39:23.580Z,10.80
2022-12-01T13:41:57.582Z,11.00
2022-12-01T13:44:43.771Z,11.00
2022-12-01T13:47:10.715Z,11.10
2022-12-01T13:49:44.801Z,12.10
2022-12-01T13:52:16.468Z,11.30
2022-12-01T13:55:01.727Z,11.40
2022-12-01T13:57:29.595Z,11.40
2022-12-01T13:59:59.514Z,11.40
2022-12-01T14:02:30.501Z,11.40
2022-12-01T14:05:16.037Z,11.40
2022-12-01T14:07:42.903Z,11.50
2022-12-01T14:10:17.225Z,11.50
2022-12-01T14:12:44.755Z,11.50
2022-12-01T14:15:22.952Z,11.40
2022-12-01T14:17:58.409Z,11.40
2022-12-01T14:20:25.332Z,11.40
2022-12-01T14:23:05.538Z,11.30
2022-12-01T14:25:32.283Z,11.10
2022-12-01T14:28:02.296Z,11.20
2022-12-01T14:30:46.003Z,11.10
2022-12-01T14:33:31.730Z,11.00
2022-12-01T14:35:58.989Z,11.00
2022-12-01T14:38:25.817Z,11.00
2022-12-01T14:40:52.800Z,10.90
2022-12-01T14:43:38.453Z,10.80
2022-12-01T14:46:06.595Z,10.80
2022-12-01T14:48:38.225Z,10.80
2022-12-01T14:51:12.746Z,10.60
2022-12-01T14:53:41.004Z,10.60
2022-12-01T14:56:08.028Z,10.50
2022-12-01T14:58:34.787Z,10.50
2022-12-01T15:01:09.125Z,10.50
2022-12-01T15:03:46.429Z,10.40
2022-12-01T15:06:17.492Z,10.30
2022-12-01T15:08:58.234Z,10.30
2022-12-01T15:11:31.173Z,10.20
2022-12-01T15:13:58.349Z,10.20
2022-12-01T15:16:26.234Z,10.20
2022-12-01T15:18:53.216Z,10.10
2022-12-01T15:21:22.722Z,10.10
2022-12-01T15:24:00.100Z,10.10
2022-12-01T15:26:28.876Z,10.10
2022-12-01T15:29:14.681Z,10.00
2022-12-01T15:31:44.151Z,10.00
2022-12-01T15:34:37.233Z,10.00
2022-12-01T15:37:04.692Z,10.00
2022-12-01T15:39:35.341Z,10.00
2022-12-01T15:42:02.103Z,9.90
2022-12-01T15:44:29.027Z,9.80
2022-12-01T15:46:55.941Z,9.90
2022-12-01T15:49:30.174Z,10.20
2022-12-01T15:52:07.167Z,9.80
2022-12-01T15:54:33.937Z,9.80
2022-12-01T15:57:01.225Z,9.80
2022-12-01T15:59:28.025Z,9.70
2022-12-01T16:01:54.823Z,9.70
2022-12-01T16:04:22.935Z,9.70
2022-12-01T16:06:57.561Z,9.60
2022-12-01T16:09:27.332Z,9.60
2022-12-01T16:12:07.384Z,9.50
2022-12-01T16:14:34.420Z,9.40
2022-12-01T16:17:01.449Z,9.30
2022-12-01T16:19:29.549Z,9.20
2022-12-01T16:22:26.044Z,8.70
2022-12-01T16:24:53.849Z,8.80
2022-12-01T16:27:27.962Z,8.60
2022-12-01T16:29:55.487Z,8.50
2022-12-01T16:32:25.329Z,8.10
2022-12-01T16:34:52.683Z,8.20
2022-12-01T16:37:19.810Z,7.30
2022-12-01T16:39:49.748Z,7.90
2022-12-01T16:42:18.223Z,7.80
2022-12-01T16:44:46.711Z,7.80
2022-12-01T16:47:14.664Z,7.40
2022-12-01T16:49:41.702Z,6.50
2022-12-01T16:52:36.582Z,7.60
2022-12-01T16:54:55.546Z,7.60
2022-12-01T16:57:22.288Z,7.60
2022-12-01T16:59:49.366Z,7.60
2022-12-01T17:02:22.091Z,7.60
2022-12-01T17:04:52.184Z,7.70
2022-12-01T17:07:19.107Z,7.60
2022-12-01T17:09:46.144Z,7.60
2022-12-01T17:12:13.074Z,7.60
2022-12-01T17:14:43.543Z,7.60
2022-12-01T17:17:16.636Z,7.60
2022-12-01T17:19:43.538Z,7.50
2022-12-01T17:22:10.285Z,6.30
2022-12-01T17:24:37.139Z,7.50
2022-12-01T17:27:04.502Z,7.50
2022-12-01T17:29:31.325Z,7.40
2022-12-01T17:31:58.086Z,7.40
2022-12-01T17:34:27.070Z,7.40
2022-12-01T17:36:53.906Z,8.40
2022-12-01T17:39:20.953Z,7.30
2022-12-01T17:41:47.797Z,7.20
2022-12-01T17:44:34.663Z,7.20
2022-12-01T17:47:03.109Z,7.10
2022-12-01T17:49:36.075Z,7.10
2022-12-01T17:52:06.857Z,7.20
2022-12-01T17:54:34.054Z,7.20
2022-12-01T17:57:00.909Z,7.70
2022-12-01T17:59:27.793Z,7.00
2022-12-01T18:01:54.696Z,7.10
2022-12-01T18:04:21.675Z,7.00
2022-12-01T18:06:54.258Z,7.10
2022-12-01T18:09:21.502Z,7.10
2022-12-01T18:11:48.446Z,7.20
2022-12-01T18:14:18.503Z,7.10
2022-12-01T18:16:45.686Z,7.20
2022-12-01T18:19:12.769Z,7.20
2022-12-01T18:21:39.687Z,7.20
2022-12-01T18:24:09.113Z,7.90
2022-12-01T18:26:36.463Z,7.10
2022-12-01T18:29:05.246Z,7.20
2022-12-01T18:31:32.340Z,7.10
2022-12-01T18:34:02.696Z,7.30
2022-12-01T18:36:29.794Z,7.40
2022-12-01T18:38:57.533Z,7.10
2022-12-01T18:41:24.483Z,7.10
2022-12-01T18:43:51.460Z,7.10
2022-12-01T18:46:18.703Z,7.10
2022-12-01T18:48:46.156Z,7.10
2022-12-01T18:51:13.097Z,7.20
2022-12-01T18:53:40.212Z,7.10
2022-12-01T18:56:11.602Z,7.00
2022-12-01T18:58:39.166Z,7.10
2022-12-01T19:01:20.693Z,7.10
2022-12-01T19:03:51.036Z,6.50
2022-12-01T19:06:19.066Z,7.10
2022-12-01T19:08:46.262Z,7.20
2022-12-01T19:11:20.889Z,6.70
2022-12-01T19:14:14.465Z,6.70
2022-12-01T19:16:41.758Z,7.30
2022-12-01T19:19:12.129Z,7.00
2022-12-01T19:21:46.214Z,7.10
2022-12-01T19:24:24.565Z,7.10
2022-12-01T19:27:20.603Z,7.00
2022-12-01T19:29:47.743Z,7.30
2022-12-01T19:35:19.101Z,7.10
2022-12-01T19:38:13.548Z,6.90
2022-12-01T19:40:43.523Z,6.00
2022-12-01T19:43:11.957Z,7.00
2022-12-01T19:45:46.312Z,7.00
2022-12-01T19:48:13.374Z,7.00
2022-12-01T19:50:40.250Z,7.00
2022-12-01T19:53:07.372Z,6.80
2022-12-01T19:55:35.942Z,7.10
2022-12-01T19:58:04.121Z,7.10
2022-12-01T20:00:31.175Z,7.10
2022-12-01T20:03:01.331Z,7.10
2022-12-01T20:05:28.436Z,7.10
2022-12-01T20:07:55.216Z,7.10
2022-12-01T20:10:22.252Z,7.10
2022-12-01T20:12:51.685Z,7.40
2022-12-01T20:15:24.402Z,7.60
2022-12-01T20:17:51.554Z,6.00
2022-12-01T20:20:18.605Z,7.10
2022-12-01T20:22:45.445Z,7.10
2022-12-01T20:25:12.229Z,7.10
2022-12-01T20:27:39.814Z,7.10
2022-12-01T20:30:07.021Z,7.10
2022-12-01T20:32:34.156Z,7.20
2022-12-01T20:35:02.164Z,8.30
2022-12-01T20:37:29.990Z,7.20
2022-12-01T20:39:57.849Z,7.20
2022-12-01T20:42:25.776Z,7.10
2022-12-01T20:44:53.104Z,7.10
2022-12-01T20:47:20.800Z,7.10
2022-12-01T20:49:52.017Z,7.10
2022-12-01T20:52:21.085Z,7.10
2022-12-01T20:54:48.470Z,7.10
2022-12-01T20:57:15.637Z,7.10
2022-12-01T20:59:42.497Z,6.30
2022-12-01T21:02:10.136Z,7.10
2022-12-01T21:04:37.034Z,7.10
2022-12-01T21:07:06.309Z,7.20
2022-12-01T21:09:33.285Z,7.00
2022-12-01T21:12:23.373Z,7.00
2022-12-01T21:15:16.650Z,7.00
2022-12-01T21:18:09.853Z,7.00
2022-12-01T21:20:40.943Z,7.70
2022-12-01T21:23:17.316Z,5.90
2022-12-01T21:25:48.253Z,7.00
2022-12-01T21:28:23.590Z,7.00
2022-12-01T21:31:01.940Z,6.90
2022-12-01T21:33:32.944Z,7.00
2022-12-01T21:36:01.013Z,6.90
2022-12-01T21:38:28.060Z,7.50
2022-12-01T21:40:55.219Z,7.10
2022-12-01T21:43:22.957Z,6.90
2022-12-01T21:45:56.615Z,6.90
2022-12-01T21:48:23.655Z,6.90
2022-12-01T21:50:54.158Z,6.90
2022-12-01T21:53:21.085Z,6.90
2022-12-01T21:55:53.796Z,6.90
2022-12-01T21:58:29.237Z,6.90
2022-12-01T22:00:59.570Z,6.90
2022-12-01T22:03:30.562Z,6.90
2022-12-01T22:06:27.741Z,6.90
2022-12-01T22:08:48.057Z,6.90
2022-12-01T22:11:22.028Z,7.10
2022-12-01T22:13:48.904Z,6.90
2022-12-01T22:16:20.356Z,6.70
2022-12-01T22:18:51.586Z,6.90
2022-12-01T22:21:27.650Z,6.90
2022-12-01T22:24:09.903Z,6.90
2022-12-01T22:26:37.312Z,6.90
2022-12-01T22:29:08.399Z,6.90
2022-12-01T22:31:35.355Z,6.90
2022-12-01T22:34:03.582Z,6.90
2022-12-01T22:36:31.439Z,6.90
2022-12-01T22:38:58.393Z,6.90
2022-12-01T22:41:25.237Z,6.90
2022-12-01T22:43:55.181Z,6.90
2022-12-01T22:46:22.150Z,6.90
2022-12-01T22:48:53.139Z,7.30
2022-12-01T22:51:22.463Z,7.00
2022-12-01T22:53:49.312Z,7.00
2022-12-01T22:56:31.496Z,7.00
2022-12-01T22:58:58.478Z,5.90
2022-12-01T23:01:33.028Z,6.90
2022-12-01T23:04:18.599Z,6.90
2022-12-01T23:06:48.710Z,6.90
2022-12-01T23:12:22.814Z,7.10
2022-12-01T23:14:50.871Z,7.00
2022-12-01T23:17:22.938Z,7.00
2022-12-01T23:19:50.750Z,6.90
2022-12-01T23:22:17.849Z,6.90
2022-12-01T23:24:45.130Z,7.10
2022-12-01T23:27:12.074Z,6.90
2022-12-01T23:29:40.805Z,6.80
2022-12-01T23:32:07.924Z,7.20
2022-12-01T23:34:35.236Z,6.90
2022-12-01T23:37:06.042Z,6.80
2022-12-01T23:39:33.233Z,6.80
2022-12-01T23:42:08.614Z,6.80
2022-12-01T23:44:43.003Z,6.80
2022-12-01T23:47:13.310Z,6.80
2022-12-01T23:49:40.494Z,7.40
2022-12-01T23:52:09.967Z,6.90
2022-12-01T23:54:37.221Z,7.40
2022-12-01T23:57:04.852Z,6.90
2022-12-01T23:59:31.944Z,6.90
